createdAt,value
2017-12-01T00:01:28.716Z,23.67
2017-12-01T00:03:56.044Z,23.10
2017-12-01T00:06:23.725Z,23.77
2017-12-01T00:08:51.356Z,21.20
2017-12-01T00:11:18.660Z,22.60
2017-12-01T00:13:45.986Z,22.73
2017-12-01T00:16:13.611Z,21.87
2017-12-01T00:18:40.988Z,22.67
2017-12-01T00:21:08.616Z,24.07
2017-12-01T00:23:35.993Z,24.17
2017-12-01T00:26:03.653Z,23.10
2017-12-01T00:28:30.951Z,21.97
2017-12-01T00:30:58.283Z,23.30
2017-12-01T00:33:25.951Z,23.00
2017-12-01T00:35:53.709Z,22.07
2017-12-01T00:38:21.349Z,21.50
2017-12-01T00:40:49.031Z,21.90
2017-12-01T00:43:16.670Z,22.17
2017-12-01T00:45:44.330Z,21.47
2017-12-01T00:48:11.652Z,22.93
2017-12-01T00:50:38.980Z,21.73
2017-12-01T00:53:06.306Z,22.77
2017-12-01T00:55:33.954Z,22.73
2017-12-01T00:58:01.346Z,22.10
2017-12-01T01:00:28.668Z,22.50
2017-12-01T01:02:56.193Z,22.17
2017-12-01T01:05:23.597Z,22.87
2017-12-01T01:07:51.220Z,21.80
2017-12-01T01:10:18.608Z,23.43
2017-12-01T01:12:45.955Z,24.27
2017-12-01T01:15:13.609Z,22.50
2017-12-01T01:17:40.913Z,21.10
2017-12-01T01:20:08.257Z,22.97
2017-12-01T01:22:35.569Z,22.50
2017-12-01T01:25:02.876Z,23.90
2017-12-01T01:27:30.214Z,23.73
2017-12-01T01:29:57.569Z,22.87
2017-12-01T01:32:24.932Z,23.57
2017-12-01T01:34:52.564Z,22.70
2017-12-01T01:37:20.246Z,24.97
2017-12-01T01:39:47.551Z,22.60
2017-12-01T01:42:14.855Z,24.47
2017-12-01T01:44:42.184Z,25.00
2017-12-01T01:47:09.820Z,25.13
2017-12-01T01:49:37.206Z,24.07
2017-12-01T01:52:04.833Z,23.37
2017-12-01T01:54:32.196Z,22.90
2017-12-01T01:56:59.509Z,24.47
2017-12-01T01:59:27.193Z,22.20
2017-12-01T02:01:54.515Z,23.37
2017-12-01T02:04:21.840Z,22.20
2017-12-01T02:06:49.513Z,23.17
2017-12-01T02:09:17.277Z,23.00
2017-12-01T02:11:44.970Z,23.90
2017-12-01T02:14:12.285Z,24.80
2017-12-01T02:16:39.595Z,24.37
2017-12-01T02:19:07.019Z,23.70
2017-12-01T02:21:34.312Z,24.03
2017-12-01T02:24:02.174Z,23.70
2017-12-01T02:26:29.469Z,25.20
2017-12-01T02:28:57.097Z,23.87
2017-12-01T02:31:24.422Z,25.90
2017-12-01T02:33:52.043Z,25.00
2017-12-01T02:36:19.694Z,25.90
2017-12-01T02:38:47.338Z,25.90
2017-12-01T02:41:14.659Z,23.93
2017-12-01T02:43:42.069Z,23.60
2017-12-01T02:46:09.798Z,25.27
2017-12-01T02:48:37.473Z,24.70
2017-12-01T02:51:04.780Z,25.20
2017-12-01T02:53:32.173Z,24.23
2017-12-01T02:55:59.825Z,23.43
2017-12-01T02:58:28.108Z,24.53
2017-12-01T03:00:55.501Z,25.03
2017-12-01T03:03:23.138Z,24.97
2017-12-01T03:05:50.497Z,24.97
2017-12-01T03:08:17.798Z,23.87
2017-12-01T03:10:45.120Z,23.53
2017-12-01T03:13:12.453Z,23.90
2017-12-01T03:15:39.809Z,23.87
2017-12-01T03:18:07.468Z,24.17
2017-12-01T03:20:34.777Z,24.83
2017-12-01T03:23:02.107Z,23.60
2017-12-01T03:25:29.428Z,22.17
2017-12-01T03:27:56.748Z,24.90
2017-12-01T03:30:24.070Z,24.13
2017-12-01T03:32:51.439Z,24.40
2017-12-01T03:35:18.756Z,24.97
2017-12-01T03:37:46.084Z,23.43
2017-12-01T03:40:13.415Z,24.27
2017-12-01T03:42:40.734Z,25.67
2017-12-01T03:45:08.080Z,24.27
2017-12-01T03:47:35.417Z,25.40
2017-12-01T03:50:02.755Z,26.97
2017-12-01T03:52:30.052Z,25.20
2017-12-01T03:54:57.375Z,26.20
2017-12-01T03:57:24.716Z,24.90
2017-12-01T03:59:52.080Z,25.00
2017-12-01T04:02:19.440Z,26.80
2017-12-01T04:04:46.767Z,27.13
2017-12-01T04:07:14.338Z,25.97
2017-12-01T04:09:41.639Z,26.07
2017-12-01T04:12:09.254Z,26.57
2017-12-01T04:14:36.691Z,27.03
2017-12-01T04:17:04.183Z,25.87
2017-12-01T04:19:31.518Z,25.07
2017-12-01T04:21:58.893Z,26.33
2017-12-01T04:24:26.211Z,26.40
2017-12-01T04:26:53.980Z,27.00
2017-12-01T04:29:21.277Z,27.53
2017-12-01T04:31:48.946Z,26.67
2017-12-01T04:34:16.609Z,26.57
2017-12-01T04:36:44.273Z,26.07
2017-12-01T04:39:11.910Z,26.37
2017-12-01T04:41:39.218Z,25.80
2017-12-01T04:44:06.550Z,25.20
2017-12-01T04:46:33.873Z,26.90
2017-12-01T04:49:01.244Z,23.80
2017-12-01T04:51:28.801Z,24.70
2017-12-01T04:53:56.149Z,25.20
2017-12-01T04:56:23.459Z,24.90
2017-12-01T04:58:50.751Z,27.87
2017-12-01T05:01:18.419Z,25.33
2017-12-01T05:03:46.070Z,25.50
2017-12-01T05:06:13.477Z,25.10
2017-12-01T05:08:40.868Z,24.90
2017-12-01T05:11:08.265Z,25.80
2017-12-01T05:13:35.884Z,25.20
2017-12-01T05:16:03.199Z,26.37
2017-12-01T05:18:30.573Z,24.57
2017-12-01T05:20:57.961Z,24.43
2017-12-01T05:23:25.276Z,25.90
2017-12-01T05:25:52.974Z,24.77
2017-12-01T05:28:20.306Z,25.40
2017-12-01T05:30:47.683Z,25.90
2017-12-01T05:33:15.073Z,26.47
2017-12-01T05:35:42.904Z,24.53
2017-12-01T05:38:10.317Z,25.40
2017-12-01T05:40:37.667Z,26.63
2017-12-01T05:43:04.974Z,27.33
2017-12-01T05:45:32.640Z,25.93
2017-12-01T05:47:59.949Z,28.33
2017-12-01T05:50:27.352Z,25.10
2017-12-01T05:52:54.990Z,28.00
2017-12-01T05:55:22.321Z,25.07
2017-12-01T05:57:49.637Z,24.10
2017-12-01T06:00:17.278Z,27.50
2017-12-01T06:02:44.910Z,27.43
2017-12-01T06:05:12.308Z,27.70
2017-12-01T06:07:39.957Z,27.10
2017-12-01T06:10:07.318Z,26.37
2017-12-01T06:12:34.669Z,26.83
2017-12-01T06:15:02.091Z,26.00
2017-12-01T06:17:29.417Z,23.60
2017-12-01T06:19:56.726Z,25.83
2017-12-01T06:22:25.238Z,24.00
2017-12-01T06:24:53.708Z,25.33
2017-12-01T06:27:21.068Z,24.97
2017-12-01T06:29:51.261Z,25.47
2017-12-01T06:32:18.587Z,25.50
2017-12-01T06:34:45.904Z,22.70
2017-12-01T06:37:13.237Z,23.83
2017-12-01T06:39:40.648Z,24.87
2017-12-01T06:42:08.014Z,25.80
2017-12-01T06:44:35.316Z,24.60
2017-12-01T06:47:02.826Z,23.63
2017-12-01T06:49:30.154Z,23.90
2017-12-01T06:52:00.904Z,23.00
2017-12-01T06:54:28.225Z,25.00
2017-12-01T06:56:55.529Z,25.60
2017-12-01T06:59:22.850Z,23.67
2017-12-01T07:01:50.160Z,25.20
2017-12-01T07:04:17.517Z,24.53
2017-12-01T07:06:44.860Z,24.20
2017-12-01T07:09:12.221Z,23.97
2017-12-01T07:11:39.560Z,25.13
2017-12-01T07:14:06.913Z,26.60
2017-12-01T07:16:34.256Z,24.53
2017-12-01T07:19:01.577Z,24.33
2017-12-01T07:21:28.901Z,24.10
2017-12-01T07:23:56.541Z,26.73
2017-12-01T07:26:29.719Z,24.10
2017-12-01T07:28:57.168Z,24.47
2017-12-01T07:31:24.468Z,24.30
2017-12-01T07:33:51.801Z,24.47
2017-12-01T07:36:19.130Z,24.63
2017-12-01T07:38:46.511Z,23.97
2017-12-01T07:41:13.974Z,23.10
2017-12-01T07:43:41.621Z,25.00
2017-12-01T07:46:08.949Z,23.20
2017-12-01T07:48:36.253Z,22.53
2017-12-01T07:51:03.613Z,22.60
2017-12-01T07:53:30.945Z,23.17
2017-12-01T07:55:58.335Z,23.43
2017-12-01T07:58:25.648Z,21.77
2017-12-01T08:00:52.998Z,22.87
2017-12-01T08:03:20.437Z,21.40
2017-12-01T08:05:47.806Z,21.40
2017-12-01T08:08:15.238Z,22.10
2017-12-01T08:10:59.532Z,20.97
2017-12-01T08:13:27.356Z,22.97
2017-12-01T08:16:00.480Z,21.73
2017-12-01T08:18:34.269Z,21.33
2017-12-01T08:21:01.687Z,20.83
2017-12-01T08:23:34.850Z,22.30
2017-12-01T08:26:12.312Z,22.70
2017-12-01T08:28:39.630Z,23.50
2017-12-01T08:31:10.760Z,23.37
2017-12-01T08:33:38.839Z,21.97
2017-12-01T08:36:06.166Z,22.70
2017-12-01T08:38:33.511Z,22.27
2017-12-01T08:41:04.512Z,23.83
2017-12-01T08:43:31.845Z,22.20
2017-12-01T08:45:59.181Z,22.60
2017-12-01T08:48:26.575Z,23.77
2017-12-01T08:50:53.876Z,21.83
2017-12-01T08:53:21.231Z,21.87
2017-12-01T08:55:48.549Z,22.93
2017-12-01T08:58:15.856Z,22.17
2017-12-01T09:00:43.163Z,23.30
2017-12-01T09:03:10.468Z,23.00
2017-12-01T09:05:37.797Z,22.60
2017-12-01T09:08:06.367Z,22.17
2017-12-01T09:10:34.958Z,23.47
2017-12-01T09:13:02.262Z,22.60
2017-12-01T09:15:29.672Z,22.70
2017-12-01T09:17:58.643Z,24.93
2017-12-01T09:20:25.976Z,26.50
2017-12-01T09:22:53.369Z,26.80
2017-12-01T09:25:21.425Z,24.07
2017-12-01T09:27:49.060Z,25.70
2017-12-01T09:30:16.729Z,23.50
2017-12-01T09:32:44.504Z,24.70
2017-12-01T09:35:11.857Z,22.10
2017-12-01T09:37:39.194Z,25.00
2017-12-01T09:40:06.500Z,25.10
2017-12-01T09:42:33.944Z,25.90
2017-12-01T09:45:01.578Z,25.87
2017-12-01T09:47:28.907Z,24.80
2017-12-01T09:49:56.294Z,22.70
2017-12-01T09:52:23.629Z,24.40
2017-12-01T09:54:50.997Z,23.40
2017-12-01T09:57:18.498Z,24.80
2017-12-01T09:59:46.165Z,25.00
2017-12-01T10:02:13.511Z,24.93
2017-12-01T10:04:40.938Z,23.23
2017-12-01T10:07:08.419Z,24.97
2017-12-01T10:09:36.154Z,23.53
2017-12-01T10:12:03.465Z,24.33
2017-12-01T10:14:31.019Z,24.80
2017-12-01T10:16:58.363Z,23.87
2017-12-01T10:19:25.688Z,23.43
2017-12-01T10:21:53.029Z,24.10
2017-12-01T10:24:20.361Z,23.43
2017-12-01T10:26:47.705Z,24.00
2017-12-01T10:29:15.184Z,22.10
2017-12-01T10:31:42.885Z,23.97
2017-12-01T10:34:10.205Z,23.70
2017-12-01T10:36:37.656Z,23.97
2017-12-01T10:39:05.002Z,23.40
2017-12-01T10:41:32.330Z,21.60
2017-12-01T10:44:00.067Z,21.80
2017-12-01T10:46:27.417Z,21.83
2017-12-01T10:48:54.819Z,21.87
2017-12-01T10:51:22.164Z,22.77
2017-12-01T10:53:49.467Z,21.77
2017-12-01T10:56:16.839Z,21.40
2017-12-01T10:58:44.157Z,21.67
2017-12-01T11:01:11.656Z,22.47
2017-12-01T11:03:39.053Z,19.97
2017-12-01T11:06:06.494Z,20.00
2017-12-01T11:08:33.812Z,18.90
2017-12-01T11:11:01.164Z,18.63
2017-12-01T11:13:28.477Z,17.30
2017-12-01T11:15:55.803Z,18.70
2017-12-01T11:18:23.114Z,19.87
2017-12-01T11:20:50.454Z,18.23
2017-12-01T11:23:17.780Z,18.50
2017-12-01T11:25:45.076Z,18.53
2017-12-01T11:28:12.437Z,19.27
2017-12-01T11:30:39.773Z,17.10
2017-12-01T11:33:07.253Z,17.57
2017-12-01T11:35:34.590Z,18.70
2017-12-01T11:38:02.187Z,18.17
2017-12-01T11:40:30.030Z,17.97
2017-12-01T11:42:57.385Z,18.93
2017-12-01T11:45:24.788Z,15.93
2017-12-01T11:47:52.149Z,17.30
2017-12-01T11:50:19.457Z,15.20
2017-12-01T11:52:46.801Z,16.90
2017-12-01T11:55:14.135Z,16.90
2017-12-01T11:57:41.615Z,17.10
2017-12-01T12:00:09.044Z,16.07
2017-12-01T12:02:36.427Z,17.20
2017-12-01T12:05:03.807Z,16.67
2017-12-01T12:07:31.121Z,17.00
2017-12-01T12:09:58.636Z,15.73
2017-12-01T12:12:25.954Z,17.13
2017-12-01T12:14:53.392Z,17.50
2017-12-01T12:17:20.700Z,18.70
2017-12-01T12:19:48.011Z,17.70
2017-12-01T12:22:15.350Z,17.40
2017-12-01T12:24:42.723Z,16.30
2017-12-01T12:27:10.061Z,16.90
2017-12-01T12:29:37.725Z,15.97
2017-12-01T12:32:05.387Z,15.60
2017-12-01T12:34:32.695Z,17.30
2017-12-01T12:37:00.067Z,17.83
2017-12-01T12:39:27.418Z,17.07
2017-12-01T12:41:54.777Z,16.50
2017-12-01T12:44:22.105Z,16.77
2017-12-01T12:46:49.420Z,18.17
2017-12-01T12:49:16.775Z,18.10
2017-12-01T12:51:44.115Z,17.37
2017-12-01T12:54:11.455Z,16.77
2017-12-01T12:56:38.813Z,16.00
2017-12-01T12:59:06.178Z,16.97
2017-12-01T13:01:33.545Z,16.00
2017-12-01T13:04:01.008Z,16.73
2017-12-01T13:06:28.524Z,17.47
2017-12-01T13:08:55.831Z,16.20
2017-12-01T13:11:23.228Z,16.27
2017-12-01T13:13:50.540Z,16.43
2017-12-01T13:16:18.319Z,15.43
2017-12-01T13:18:45.651Z,16.77
2017-12-01T13:21:13.105Z,16.67
2017-12-01T13:23:40.434Z,17.20
2017-12-01T13:26:07.745Z,17.30
2017-12-01T13:28:35.074Z,16.00
2017-12-01T13:31:02.422Z,15.87
2017-12-01T13:33:29.747Z,14.43
2017-12-01T13:35:57.046Z,16.20
2017-12-01T13:38:24.440Z,15.30
2017-12-01T13:40:51.741Z,17.80
2017-12-01T13:43:19.075Z,18.50
2017-12-01T13:45:46.469Z,20.70
2017-12-01T13:48:13.795Z,21.17
2017-12-01T13:50:41.136Z,19.57
2017-12-01T13:53:08.464Z,19.60
2017-12-01T13:55:35.816Z,20.57
2017-12-01T13:58:03.123Z,18.00
2017-12-01T14:00:30.460Z,18.60
2017-12-01T14:02:57.805Z,20.17
2017-12-01T14:05:25.170Z,18.40
2017-12-01T14:07:52.502Z,19.33
2017-12-01T14:10:19.829Z,19.90
2017-12-01T14:12:47.203Z,18.40
2017-12-01T14:15:14.525Z,18.85
2017-12-01T14:17:41.844Z,20.67
2017-12-01T14:20:09.189Z,20.60
2017-12-01T14:22:36.545Z,19.20
2017-12-01T14:25:03.901Z,19.77
2017-12-01T14:27:31.273Z,18.73
2017-12-01T14:29:58.633Z,20.30
2017-12-01T14:32:25.956Z,21.60
2017-12-01T14:34:53.299Z,21.30
2017-12-01T14:37:20.604Z,20.20
2017-12-01T14:39:48.211Z,18.30
2017-12-01T14:42:15.549Z,17.90
2017-12-01T14:44:42.865Z,19.23
2017-12-01T14:47:10.201Z,18.47
2017-12-01T14:49:37.843Z,19.93
2017-12-01T14:52:05.189Z,19.03
2017-12-01T14:54:32.492Z,19.20
2017-12-01T14:56:59.940Z,18.80
2017-12-01T14:59:27.346Z,18.80
2017-12-01T15:01:54.637Z,19.17
2017-12-01T15:04:21.973Z,19.63
2017-12-01T15:06:49.306Z,16.20
2017-12-01T15:09:16.628Z,19.10
2017-12-01T15:11:43.977Z,19.20
2017-12-01T15:14:11.284Z,18.10
2017-12-01T15:16:38.612Z,18.27
2017-12-01T15:19:05.945Z,18.33
2017-12-01T15:21:33.296Z,17.97
2017-12-01T15:24:00.700Z,18.50
2017-12-01T15:26:27.983Z,19.40
2017-12-01T15:28:55.328Z,18.10
2017-12-01T15:31:22.804Z,19.00
2017-12-01T15:33:50.194Z,19.43
2017-12-01T15:36:17.565Z,19.13
2017-12-01T15:38:44.892Z,20.07
2017-12-01T15:41:12.217Z,20.93
2017-12-01T15:43:39.573Z,19.70
2017-12-01T15:46:06.906Z,19.97
2017-12-01T15:48:34.259Z,18.27
2017-12-01T15:51:01.653Z,18.97
2017-12-01T15:53:28.970Z,19.07
2017-12-01T15:55:56.319Z,19.00
2017-12-01T15:58:23.668Z,18.93
2017-12-01T16:00:50.986Z,19.63
2017-12-01T16:03:18.396Z,19.63
2017-12-01T16:05:45.803Z,18.20
2017-12-01T16:08:13.225Z,19.73
2017-12-01T16:10:40.559Z,19.63
2017-12-01T16:13:08.258Z,20.37
2017-12-01T16:15:35.881Z,18.80
2017-12-01T16:18:03.527Z,19.40
2017-12-01T16:20:30.861Z,18.33
2017-12-01T16:22:58.161Z,18.30
2017-12-01T16:25:25.480Z,18.30
2017-12-01T16:27:52.833Z,18.53
2017-12-01T16:30:20.176Z,19.07
2017-12-01T16:32:51.197Z,19.37
2017-12-01T16:35:15.203Z,19.30
2017-12-01T16:37:42.588Z,18.30
2017-12-01T16:40:10.221Z,19.07
2017-12-01T16:42:37.558Z,18.50
2017-12-01T16:45:04.938Z,17.67
2017-12-01T16:47:32.256Z,18.00
2017-12-01T16:49:59.639Z,19.57
2017-12-01T16:52:26.970Z,21.10
2017-12-01T16:54:54.740Z,18.13
2017-12-01T16:57:22.075Z,19.40
2017-12-01T16:59:49.407Z,19.77
2017-12-01T17:02:16.763Z,17.93
2017-12-01T17:04:44.081Z,19.43
2017-12-01T17:07:11.404Z,19.40
2017-12-01T17:09:39.114Z,19.53
2017-12-01T17:12:06.800Z,19.67
2017-12-01T17:14:34.405Z,20.73
2017-12-01T17:17:02.161Z,20.00
2017-12-01T17:19:29.551Z,19.60
2017-12-01T17:21:57.121Z,18.70
2017-12-01T17:24:24.979Z,19.10
2017-12-01T17:26:52.668Z,18.67
2017-12-01T17:29:20.422Z,19.60
2017-12-01T17:31:47.931Z,20.83
2017-12-01T17:34:15.334Z,20.70
2017-12-01T17:36:42.765Z,19.83
2017-12-01T17:39:10.085Z,22.07
2017-12-01T17:41:37.759Z,20.40
2017-12-01T17:44:05.444Z,23.70
2017-12-01T17:46:33.125Z,21.17
2017-12-01T17:49:00.801Z,22.93
2017-12-01T17:51:28.137Z,21.87
2017-12-01T17:53:55.793Z,22.43
2017-12-01T17:56:23.141Z,23.30
2017-12-01T17:58:50.842Z,24.77
2017-12-01T18:01:18.321Z,22.67
2017-12-01T18:03:46.204Z,22.67
2017-12-01T18:06:13.954Z,21.33
2017-12-01T18:08:41.685Z,21.47
2017-12-01T18:11:09.080Z,21.87
2017-12-01T18:13:36.901Z,21.90
2017-12-01T18:16:04.296Z,20.97
2017-12-01T18:18:31.795Z,21.23
2017-12-01T18:20:59.450Z,22.20
2017-12-01T18:23:27.215Z,22.17
2017-12-01T18:25:54.918Z,20.17
2017-12-01T18:28:22.295Z,20.17
2017-12-01T18:30:49.741Z,20.13
2017-12-01T18:33:17.252Z,21.20
2017-12-01T18:35:44.973Z,20.07
2017-12-01T18:38:12.709Z,18.53
2017-12-01T18:40:40.351Z,18.70
2017-12-01T18:43:08.040Z,19.87
2017-12-01T18:45:35.351Z,18.70
2017-12-01T18:48:03.061Z,18.60
2017-12-01T18:50:30.803Z,19.10
2017-12-01T18:52:58.211Z,19.20
2017-12-01T18:55:25.548Z,20.77
2017-12-01T18:57:52.939Z,18.70
2017-12-01T19:00:20.277Z,20.70
2017-12-01T19:02:48.017Z,19.17
2017-12-01T19:05:15.388Z,19.43
2017-12-01T19:07:43.109Z,19.30
2017-12-01T19:10:10.452Z,20.63
2017-12-01T19:12:37.805Z,19.07
2017-12-01T19:15:05.530Z,18.73
2017-12-01T19:17:33.212Z,20.73
2017-12-01T19:20:00.906Z,19.30
2017-12-01T19:22:28.638Z,21.20
2017-12-01T19:24:55.994Z,19.60
2017-12-01T19:27:23.512Z,19.70
2017-12-01T19:29:51.260Z,20.40
2017-12-01T19:32:18.916Z,22.00
2017-12-01T19:34:46.547Z,20.73
2017-12-01T19:37:14.217Z,19.90
2017-12-01T19:39:41.942Z,21.90
2017-12-01T19:42:09.639Z,21.20
2017-12-01T19:44:37.301Z,23.83
2017-12-01T19:47:04.992Z,23.10
2017-12-01T19:49:32.722Z,25.30
2017-12-01T19:52:00.401Z,24.90
2017-12-01T19:54:28.117Z,23.47
2017-12-01T19:56:55.608Z,24.70
2017-12-01T19:59:23.293Z,23.07
2017-12-01T20:01:50.929Z,22.00
2017-12-01T20:04:18.590Z,23.70
2017-12-01T20:06:45.995Z,22.20
2017-12-01T20:09:13.718Z,21.67
2017-12-01T20:11:41.399Z,22.07
2017-12-01T20:14:08.771Z,22.30
2017-12-01T20:16:36.201Z,22.40
2017-12-01T20:19:04.028Z,20.30
2017-12-01T20:21:31.381Z,21.33
2017-12-01T20:23:58.746Z,21.40
2017-12-01T20:26:26.439Z,22.73
2017-12-01T20:28:54.205Z,23.97
2017-12-01T20:31:21.835Z,22.40
2017-12-01T20:33:49.295Z,21.37
2017-12-01T20:36:16.983Z,22.73
2017-12-01T20:38:44.423Z,25.50
2017-12-01T20:41:11.742Z,23.30
2017-12-01T20:43:39.686Z,22.07
2017-12-01T20:46:07.012Z,23.97
2017-12-01T20:48:34.522Z,22.47
2017-12-01T20:51:01.860Z,20.87
2017-12-01T20:53:29.197Z,22.80
2017-12-01T20:55:56.608Z,23.17
2017-12-01T20:58:23.959Z,22.70
2017-12-01T21:00:51.658Z,24.00
2017-12-01T21:03:19.011Z,23.30
2017-12-01T21:05:46.548Z,22.50
2017-12-01T21:08:14.210Z,23.60
2017-12-01T21:10:41.994Z,24.63
2017-12-01T21:13:09.685Z,23.77
2017-12-01T21:15:37.102Z,25.40
2017-12-01T21:18:04.785Z,22.57
2017-12-01T21:20:32.584Z,25.17
2017-12-01T21:23:00.297Z,24.10
2017-12-01T21:25:27.689Z,26.40
2017-12-01T21:27:55.461Z,24.30
2017-12-01T21:30:22.830Z,20.97
2017-12-01T21:32:50.524Z,22.30
2017-12-01T21:35:18.191Z,22.07
2017-12-01T21:37:45.980Z,21.33
2017-12-01T21:40:13.289Z,23.60
2017-12-01T21:42:40.983Z,22.63
2017-12-01T21:45:08.826Z,21.57
2017-12-01T21:47:36.569Z,21.90
2017-12-01T21:50:03.921Z,21.60
2017-12-01T21:52:31.352Z,21.83
2017-12-01T21:54:59.042Z,20.30
2017-12-01T21:57:26.363Z,22.07
2017-12-01T21:59:53.825Z,22.40
2017-12-01T22:02:21.260Z,21.23
2017-12-01T22:04:48.772Z,21.50
2017-12-01T22:07:16.176Z,23.13
2017-12-01T22:09:43.521Z,30.90
2017-12-01T22:12:10.875Z,25.80
2017-12-01T22:14:38.516Z,23.37
2017-12-01T22:17:06.166Z,22.90
2017-12-01T22:19:33.828Z,24.30
2017-12-01T22:22:01.562Z,22.40
2017-12-01T22:24:29.285Z,22.23
2017-12-01T22:26:56.622Z,23.63
2017-12-01T22:29:24.299Z,23.20
2017-12-01T22:31:51.953Z,22.60
2017-12-01T22:34:19.658Z,23.00
2017-12-01T22:36:47.048Z,22.50
2017-12-01T22:39:14.714Z,23.10
2017-12-01T22:41:42.052Z,22.93
2017-12-01T22:44:09.413Z,22.70
2017-12-01T22:46:37.093Z,21.37
2017-12-01T22:49:04.781Z,23.10
2017-12-01T22:51:32.099Z,22.40
2017-12-01T22:53:59.419Z,22.63
2017-12-01T22:56:27.088Z,22.47
2017-12-01T22:58:54.761Z,23.30
2017-12-01T23:01:22.082Z,22.00
2017-12-01T23:03:49.473Z,22.60
2017-12-01T23:06:16.833Z,24.00
2017-12-01T23:08:44.147Z,21.73
2017-12-01T23:11:11.474Z,22.40
2017-12-01T23:13:39.093Z,23.27
2017-12-01T23:16:06.517Z,23.47
2017-12-01T23:18:33.913Z,22.60
2017-12-01T23:21:01.573Z,23.10
2017-12-01T23:23:29.336Z,21.93
2017-12-01T23:25:56.649Z,19.30
2017-12-01T23:28:24.026Z,22.07
2017-12-01T23:30:52.024Z,21.30
2017-12-01T23:33:19.401Z,22.87
2017-12-01T23:35:47.245Z,20.90
2017-12-01T23:38:14.600Z,20.60
2017-12-01T23:40:42.051Z,21.47
2017-12-01T23:43:09.372Z,20.50
2017-12-01T23:45:36.755Z,21.00
2017-12-01T23:48:04.081Z,21.60
2017-12-01T23:50:31.551Z,21.70
2017-12-01T23:52:59.433Z,19.90
2017-12-01T23:55:26.750Z,21.63
2017-12-01T23:57:54.083Z,21.10
